Neal, Kansas
Current Conditions -  °F | °C
As of 3:52 PM on Friday 19 Dec 2014 (Local Time) from KCNU Reporting Station
Haze Haze  
Wind Chill: 35°   Ceiling: 300
Heat Index: 35°   Visibility: 2.5mi
Dew Point: 34°   Wind: 3mph
Humidity: 96%   Direction: 360°N
Pressure: 30.2"   Gusts: NA
Location:  37.83°N, 96.08°W
Report Text: KCNU 192152Z AUTO 36003KT 2 1/2SM BR OVC003 02/01 A3020 RMK AO2 SLP232 T00170011
Loading
Personal Weather Stations






























Interactive Weather Map New forecast layout! Learn more

10-Day Weather Forecast

Advertisements
Track Severe Weather on mobile